首页
METAR-TAF:

METAR-TAF

机场 :

安東尼奧·汪帕特國際機場

阿加尼亚, 關島, 美国

纬度: 13-29N, 经度: 144-48E, 海拔: 91米

当前天气观测

该预报发布于18分钟前的23:54 UTC
风速12节,风向,有时为27节阵风
温度 30°C
湿度 84%
气压 1007 hPa
能見度: 16.1公里
散云层高于2300英尺
多云层高于3100英尺

METAR: PGUM 162354Z 19012G27KT 10SM SCT023 BKN031 30/27 A2974 RMK AO2 PK WND 21027/2345 SLP061 60000 T03000267 10300 20267 51002

时间: 10:12 (00:12 UTC)

预报

该预报发布于52分钟前的23:20 UTC
预报有效从17日的 00点(UTC)到 18日的 06点(UTC)
风速15节,风向南转西南,有时为25节阵风
能見度: 10公里
少量云层高于1800英尺
散云层高于2500英尺
附近有阵雨
从 17日的 0900点(UTC)
风速10节,风向南转西南
能見度: 10公里
散云层高于2000英尺
附近有阵雨

TAF: PGUM 162320Z 1700/1806 20015G25KT P6SM VCSH FEW018 SCT025 FM170900 20010KT P6SM VCSH SCT020

超过4000个机场的气象观测和天气预报(METAR&TAF报告)。

可查询的气象台以黄色和红色小点在地图上表示。

将鼠标移到小点上方,可查看气象台名称。

然后点击查看天气观测和预报。

如需切换地图:点击带黑十字的绿色按钮放大地图;点击带横线的绿色按钮缩小地图;或者点击绿色箭头查看邻近地区的地图。


METAR-TAF: